sensor_id;sensor_type;location;lat;lon;timestamp;temperature;humidity
49821;DHT22;36893;52.520;13.450;2023-04-25T00:00:47;24.20;67.40
49821;DHT22;36893;52.520;13.450;2023-04-25T00:10:48;24.20;67.40
49821;DHT22;36893;52.520;13.450;2023-04-25T00:20:49;24.20;67.30
49821;DHT22;36893;52.520;13.450;2023-04-25T00:30:50;24.20;67.30
49821;DHT22;36893;52.520;13.450;2023-04-25T00:40:50;24.20;67.20
49821;DHT22;36893;52.520;13.450;2023-04-25T00:50:54;24.20;67.10
49821;DHT22;36893;52.520;13.450;2023-04-25T01:00:57;24.10;67.00
49821;DHT22;36893;52.520;13.450;2023-04-25T01:10:58;24.10;66.90
49821;DHT22;36893;52.520;13.450;2023-04-25T01:21:07;24.10;66.90
49821;DHT22;36893;52.520;13.450;2023-04-25T01:31:12;24.10;66.90
49821;DHT22;36893;52.520;13.450;2023-04-25T01:41:14;24.10;66.80
49821;DHT22;36893;52.520;13.450;2023-04-25T01:51:15;24.10;66.70
49821;DHT22;36893;52.520;13.450;2023-04-25T02:01:15;24.10;66.70
49821;DHT22;36893;52.520;13.450;2023-04-25T02:11:16;24.10;66.60
49821;DHT22;36893;52.520;13.450;2023-04-25T02:21:17;24.10;66.50
49821;DHT22;36893;52.520;13.450;2023-04-25T02:31:17;24.00;66.50
49821;DHT22;36893;52.520;13.450;2023-04-25T02:41:18;24.00;66.40
49821;DHT22;36893;52.520;13.450;2023-04-25T02:51:19;24.00;66.30
49821;DHT22;36893;52.520;13.450;2023-04-25T03:01:19;24.00;66.30
49821;DHT22;36893;52.520;13.450;2023-04-25T03:11:20;24.00;66.20
49821;DHT22;36893;52.520;13.450;2023-04-25T03:21:21;24.00;66.20
49821;DHT22;36893;52.520;13.450;2023-04-25T03:31:21;24.00;66.10
49821;DHT22;36893;52.520;13.450;2023-04-25T03:41:22;23.90;66.00
49821;DHT22;36893;52.520;13.450;2023-04-25T03:51:23;23.90;66.00
49821;DHT22;36893;52.520;13.450;2023-04-25T04:01:23;23.90;65.90
49821;DHT22;36893;52.520;13.450;2023-04-25T04:11:25;23.90;65.90
49821;DHT22;36893;52.520;13.450;2023-04-25T04:21:26;23.90;65.80
49821;DHT22;36893;52.520;13.450;2023-04-25T04:31:27;23.80;65.90
49821;DHT22;36893;52.520;13.450;2023-04-25T04:41:28;23.90;66.00
49821;DHT22;36893;52.520;13.450;2023-04-25T04:51:28;23.90;66.20
49821;DHT22;36893;52.520;13.450;2023-04-25T05:01:30;23.80;66.20
49821;DHT22;36893;52.520;13.450;2023-04-25T05:11:31;23.90;66.30
49821;DHT22;36893;52.520;13.450;2023-04-25T05:21:31;23.80;66.40
49821;DHT22;36893;52.520;13.450;2023-04-25T05:31:32;23.80;66.40
49821;DHT22;36893;52.520;13.450;2023-04-25T05:41:33;23.80;66.50
49821;DHT22;36893;52.520;13.450;2023-04-25T05:51:34;23.80;66.50
49821;DHT22;36893;52.520;13.450;2023-04-25T06:01:34;23.80;66.50
49821;DHT22;36893;52.520;13.450;2023-04-25T06:11:35;23.70;66.50
49821;DHT22;36893;52.520;13.450;2023-04-25T06:21:36;23.70;66.50
49821;DHT22;36893;52.520;13.450;2023-04-25T06:31:39;23.70;66.60
49821;DHT22;36893;52.520;13.450;2023-04-25T06:41:39;23.70;66.60
49821;DHT22;36893;52.520;13.450;2023-04-25T06:51:49;23.70;66.70
49821;DHT22;36893;52.520;13.450;2023-04-25T07:01:59;23.80;66.80
49821;DHT22;36893;52.520;13.450;2023-04-25T07:12:03;23.80;66.80
49821;DHT22;36893;52.520;13.450;2023-04-25T07:22:05;23.70;66.70
49821;DHT22;36893;52.520;13.450;2023-04-25T07:32:15;23.70;66.70
49821;DHT22;36893;52.520;13.450;2023-04-25T07:42:18;23.70;66.70
49821;DHT22;36893;52.520;13.450;2023-04-25T07:52:22;23.70;66.70
49821;DHT22;36893;52.520;13.450;2023-04-25T08:02:27;23.70;66.80
49821;DHT22;36893;52.520;13.450;2023-04-25T08:12:31;23.70;66.80
49821;DHT22;36893;52.520;13.450;2023-04-25T08:22:32;23.60;66.70
49821;DHT22;36893;52.520;13.450;2023-04-25T08:32:41;23.60;66.80
49821;DHT22;36893;52.520;13.450;2023-04-25T08:42:49;23.60;66.80
49821;DHT22;36893;52.520;13.450;2023-04-25T08:52:54;23.60;66.70
49821;DHT22;36893;52.520;13.450;2023-04-25T09:03:08;23.60;66.70
49821;DHT22;36893;52.520;13.450;2023-04-25T09:13:17;23.60;66.70
49821;DHT22;36893;52.520;13.450;2023-04-25T09:23:26;23.60;66.60
49821;DHT22;36893;52.520;13.450;2023-04-25T09:33:31;23.70;66.40
49821;DHT22;36893;52.520;13.450;2023-04-25T09:43:33;23.70;66.40
49821;DHT22;36893;52.520;13.450;2023-04-25T09:53:35;23.70;66.40
49821;DHT22;36893;52.520;13.450;2023-04-25T10:03:38;23.70;66.30
49821;DHT22;36893;52.520;13.450;2023-04-25T10:13:43;23.70;66.30
49821;DHT22;36893;52.520;13.450;2023-04-25T10:23:44;23.70;66.30
49821;DHT22;36893;52.520;13.450;2023-04-25T10:33:45;23.70;66.30
49821;DHT22;36893;52.520;13.450;2023-04-25T10:43:50;23.70;66.30
49821;DHT22;36893;52.520;13.450;2023-04-25T11:04:04;23.60;66.20
49821;DHT22;36893;52.520;13.450;2023-04-25T11:14:05;23.70;66.30
49821;DHT22;36893;52.520;13.450;2023-04-25T11:24:05;23.60;66.30
49821;DHT22;36893;52.520;13.450;2023-04-25T11:34:06;23.60;66.20
49821;DHT22;36893;52.520;13.450;2023-04-25T11:44:10;23.60;66.20
49821;DHT22;36893;52.520;13.450;2023-04-25T11:54:12;23.60;66.30
49821;DHT22;36893;52.520;13.450;2023-04-25T12:04:22;23.60;66.30
49821;DHT22;36893;52.520;13.450;2023-04-25T12:14:30;23.50;66.20
49821;DHT22;36893;52.520;13.450;2023-04-25T12:24:35;23.50;66.20
49821;DHT22;36893;52.520;13.450;2023-04-25T12:34:36;23.50;66.20
49821;DHT22;36893;52.520;13.450;2023-04-25T12:44:38;23.60;66.30
49821;DHT22;36893;52.520;13.450;2023-04-25T12:54:38;23.50;66.10
49821;DHT22;36893;52.520;13.450;2023-04-25T13:04:39;23.60;66.20
49821;DHT22;36893;52.520;13.450;2023-04-25T13:14:40;23.60;66.20
49821;DHT22;36893;52.520;13.450;2023-04-25T13:24:41;23.60;66.20
49821;DHT22;36893;52.520;13.450;2023-04-25T13:34:41;23.50;66.10
49821;DHT22;36893;52.520;13.450;2023-04-25T13:44:43;23.60;66.10
49821;DHT22;36893;52.520;13.450;2023-04-25T13:54:44;23.50;66.00
49821;DHT22;36893;52.520;13.450;2023-04-25T14:04:45;23.60;65.90
49821;DHT22;36893;52.520;13.450;2023-04-25T14:14:46;23.60;65.90
49821;DHT22;36893;52.520;13.450;2023-04-25T14:24:49;23.60;65.80
49821;DHT22;36893;52.520;13.450;2023-04-25T14:34:50;23.50;65.70
49821;DHT22;36893;52.520;13.450;2023-04-25T14:44:51;23.50;65.60
49821;DHT22;36893;52.520;13.450;2023-04-25T14:54:54;23.40;64.50
49821;DHT22;36893;52.520;13.450;2023-04-25T15:04:54;23.10;63.50
49821;DHT22;36893;52.520;13.450;2023-04-25T15:14:56;22.80;62.50
49821;DHT22;36893;52.520;13.450;2023-04-25T15:24:56;22.60;61.70
49821;DHT22;36893;52.520;13.450;2023-04-25T15:34:57;22.40;61.00
49821;DHT22;36893;52.520;13.450;2023-04-25T15:44:57;22.20;60.40
49821;DHT22;36893;52.520;13.450;2023-04-25T15:54:58;22.10;59.80
49821;DHT22;36893;52.520;13.450;2023-04-25T16:04:59;22.00;59.40
49821;DHT22;36893;52.520;13.450;2023-04-25T16:15:00;21.80;59.00
49821;DHT22;36893;52.520;13.450;2023-04-25T16:25:01;21.80;58.70
49821;DHT22;36893;52.520;13.450;2023-04-25T16:35:07;21.80;58.50
49821;DHT22;36893;52.520;13.450;2023-04-25T16:45:09;22.00;58.80
49821;DHT22;36893;52.520;13.450;2023-04-25T16:55:10;22.30;59.10
49821;DHT22;36893;52.520;13.450;2023-04-25T17:05:10;22.40;59.60
49821;DHT22;36893;52.520;13.450;2023-04-25T17:15:11;22.50;60.20
49821;DHT22;36893;52.520;13.450;2023-04-25T17:25:12;22.60;60.70
49821;DHT22;36893;52.520;13.450;2023-04-25T17:35:13;22.60;61.20
49821;DHT22;36893;52.520;13.450;2023-04-25T17:45:14;22.70;61.60
49821;DHT22;36893;52.520;13.450;2023-04-25T17:55:15;22.70;61.90
49821;DHT22;36893;52.520;13.450;2023-04-25T18:05:16;22.80;62.20
49821;DHT22;36893;52.520;13.450;2023-04-25T18:15:17;22.80;62.40
49821;DHT22;36893;52.520;13.450;2023-04-25T18:25:18;22.80;62.60
49821;DHT22;36893;52.520;13.450;2023-04-25T18:35:19;22.80;62.90
49821;DHT22;36893;52.520;13.450;2023-04-25T18:45:20;22.70;63.00
49821;DHT22;36893;52.520;13.450;2023-04-25T18:55:20;22.80;63.30
49821;DHT22;36893;52.520;13.450;2023-04-25T19:05:24;22.70;63.30
49821;DHT22;36893;52.520;13.450;2023-04-25T19:15:24;22.70;63.40
49821;DHT22;36893;52.520;13.450;2023-04-25T19:25:25;22.80;63.50
49821;DHT22;36893;52.520;13.450;2023-04-25T19:35:26;22.80;63.50
49821;DHT22;36893;52.520;13.450;2023-04-25T19:45:30;22.80;63.50
49821;DHT22;36893;52.520;13.450;2023-04-25T19:55:32;22.80;63.50
49821;DHT22;36893;52.520;13.450;2023-04-25T20:05:38;22.80;63.50
49821;DHT22;36893;52.520;13.450;2023-04-25T20:15:38;22.80;63.50
49821;DHT22;36893;52.520;13.450;2023-04-25T20:25:39;22.80;63.40
49821;DHT22;36893;52.520;13.450;2023-04-25T20:35:40;22.80;63.30
49821;DHT22;36893;52.520;13.450;2023-04-25T20:45:40;22.80;63.30
49821;DHT22;36893;52.520;13.450;2023-04-25T20:55:41;22.80;63.30
49821;DHT22;36893;52.520;13.450;2023-04-25T21:05:42;22.80;63.30
49821;DHT22;36893;52.520;13.450;2023-04-25T21:15:42;22.80;63.30
49821;DHT22;36893;52.520;13.450;2023-04-25T21:25:43;22.80;63.30
49821;DHT22;36893;52.520;13.450;2023-04-25T21:35:44;22.80;63.30
49821;DHT22;36893;52.520;13.450;2023-04-25T21:45:45;22.80;63.30
49821;DHT22;36893;52.520;13.450;2023-04-25T21:55:45;22.80;63.20
49821;DHT22;36893;52.520;13.450;2023-04-25T22:05:47;22.80;63.20
49821;DHT22;36893;52.520;13.450;2023-04-25T22:15:47;22.80;63.20
49821;DHT22;36893;52.520;13.450;2023-04-25T22:25:48;22.80;63.20
49821;DHT22;36893;52.520;13.450;2023-04-25T22:35:49;22.70;63.00
49821;DHT22;36893;52.520;13.450;2023-04-25T22:45:49;22.70;63.00
49821;DHT22;36893;52.520;13.450;2023-04-25T22:55:57;22.70;63.00
49821;DHT22;36893;52.520;13.450;2023-04-25T23:05:58;22.70;63.00
49821;DHT22;36893;52.520;13.450;2023-04-25T23:16:07;22.70;62.90
49821;DHT22;36893;52.520;13.450;2023-04-25T23:26:11;22.70;63.00
49821;DHT22;36893;52.520;13.450;2023-04-25T23:36:16;22.70;62.90
49821;DHT22;36893;52.520;13.450;2023-04-25T23:46:20;22.70;62.90
49821;DHT22;36893;52.520;13.450;2023-04-25T23:56:21;22.70;62.90
